Time;durP1;ratioP1;P1;durP2;ratioP2;P2;SDS_P1;SDS_P2;PMS_P1;PMS_P2;Temp;Humidity;BMP_temperature;BMP_pressure;BME280_temperature;BME280_humidity;BME280_pressure;Samples;Min_cycle;Max_cycle;Signal;HPM_P1;HPM_P2
2020/12/18 00:00:59;;;;;;;10.40;5.30;;;;;;;;;;5045995;28;20205;-81
2020/12/18 00:03:25;;;;;;;9.82;5.22;;;;;;;;;;5038561;28;20185;-80
2020/12/18 00:05:52;;;;;;;6.82;4.60;;;;;;;;;;5022782;28;20191;-81
2020/12/18 00:08:18;;;;;;;8.63;5.43;;;;;;;;;;5050906;28;20189;-81
2020/12/18 00:10:44;;;;;;;9.15;5.32;;;;;;;;;;5041515;28;20748;-81
2020/12/18 00:13:10;;;;;;;9.40;5.43;;;;;;;;;;5038663;28;20248;-82
2020/12/18 00:15:36;;;;;;;9.35;4.90;;;;;;;;;;5027279;28;20405;-81
2020/12/18 00:18:02;;;;;;;13.87;6.20;;;;;;;;;;5026272;28;20181;-81
2020/12/18 00:20:28;;;;;;;12.13;6.25;;;;;;;;;;5024532;28;20441;-81
2020/12/18 00:22:54;;;;;;;8.70;4.88;;;;;;;;;;5041466;28;20178;-82
2020/12/18 00:25:20;;;;;;;11.98;5.50;;;;;;;;;;5039061;28;20186;-83
2020/12/18 00:27:47;;;;;;;7.60;4.50;;;;;;;;;;5024033;28;20324;-81
2020/12/18 00:30:13;;;;;;;7.53;5.05;;;;;;;;;;5041997;28;20268;-82
2020/12/18 00:32:39;;;;;;;12.10;5.70;;;;;;;;;;5021199;28;20179;-82
2020/12/18 00:35:06;;;;;;;6.88;4.75;;;;;;;;;;5044125;28;20669;-81
2020/12/18 00:37:32;;;;;;;5.00;4.18;;;;;;;;;;5038832;28;20181;-82
2020/12/18 00:39:58;;;;;;;7.05;4.25;;;;;;;;;;5045082;28;20264;-82
2020/12/18 00:42:24;;;;;;;8.15;4.45;;;;;;;;;;5025795;28;20190;-81
2020/12/18 00:44:50;;;;;;;6.28;3.67;;;;;;;;;;5039301;28;20183;-82
2020/12/18 00:47:16;;;;;;;5.85;4.57;;;;;;;;;;5043528;28;20185;-82
2020/12/18 00:49:42;;;;;;;5.07;2.95;;;;;;;;;;5025892;28;20202;-82
2020/12/18 00:52:08;;;;;;;3.70;3.20;;;;;;;;;;5045118;28;20174;-81
2020/12/18 00:54:34;;;;;;;6.18;4.40;;;;;;;;;;5028980;28;20661;-82
2020/12/18 00:57:00;;;;;;;6.43;3.55;;;;;;;;;;5041572;28;20190;-81
2020/12/18 00:59:26;;;;;;;4.72;3.47;;;;;;;;;;5041632;28;20250;-81
2020/12/18 01:01:59;;;;;;;6.85;4.63;;;;;;;;;;5022603;28;20190;-81
2020/12/18 01:04:25;;;;;;;4.95;3.40;;;;;;;;;;5043869;28;20200;-82
2020/12/18 01:06:52;;;;;;;5.97;3.60;;;;;;;;;;5027354;28;20170;-82
2020/12/18 01:09:18;;;;;;;4.93;3.25;;;;;;;;;;5025108;28;20202;-83
2020/12/18 01:11:44;;;;;;;6.82;3.92;;;;;;;;;;5025743;28;20197;-81
2020/12/18 01:14:10;;;;;;;7.87;4.20;;;;;;;;;;5038168;28;20284;-82
2020/12/18 01:16:36;;;;;;;11.60;3.85;;;;;;;;;;5019257;28;20441;-82
2020/12/18 01:19:02;;;;;;;7.85;4.70;;;;;;;;;;5034994;28;20186;-83
2020/12/18 01:21:28;;;;;;;6.53;4.65;;;;;;;;;;5024069;28;20636;-82
2020/12/18 01:23:54;;;;;;;9.45;4.97;;;;;;;;;;5016593;28;20217;-82
2020/12/18 01:26:20;;;;;;;9.47;4.37;;;;;;;;;;5021969;28;20179;-81
2020/12/18 01:28:46;;;;;;;6.22;4.07;;;;;;;;;;5019493;28;20441;-82
2020/12/18 01:31:12;;;;;;;12.90;6.35;;;;;;;;;;5032832;28;20178;-83
2020/12/18 01:33:38;;;;;;;8.50;4.10;;;;;;;;;;5034370;28;20722;-83
2020/12/18 01:36:05;;;;;;;8.07;4.80;;;;;;;;;;5018136;28;20445;-83
2020/12/18 01:38:31;;;;;;;12.38;4.90;;;;;;;;;;5020147;28;20438;-82
2020/12/18 01:40:57;;;;;;;11.85;4.60;;;;;;;;;;5019074;28;20217;-82
2020/12/18 01:43:23;;;;;;;6.85;4.80;;;;;;;;;;5037800;28;20682;-83
2020/12/18 01:45:49;;;;;;;11.00;4.50;;;;;;;;;;5023258;28;20198;-82
2020/12/18 01:48:15;;;;;;;7.50;4.10;;;;;;;;;;5017611;28;20628;-83
2020/12/18 01:50:41;;;;;;;6.78;4.47;;;;;;;;;;5017556;28;20462;-83
2020/12/18 01:53:08;;;;;;;4.93;3.60;;;;;;;;;;5022371;28;20228;-82
2020/12/18 01:55:34;;;;;;;7.38;4.72;;;;;;;;;;5021399;28;20185;-86
2020/12/18 01:58:01;;;;;;;8.35;4.10;;;;;;;;;;5018471;28;20220;-82
2020/12/18 02:00:27;;;;;;;6.40;4.70;;;;;;;;;;5022596;28;20205;-83
2020/12/18 02:02:54;;;;;;;4.45;3.55;;;;;;;;;;5037373;28;20214;-85
2020/12/18 02:05:20;;;;;;;8.65;4.25;;;;;;;;;;5019866;28;20278;-83
2020/12/18 02:07:53;;;;;;;7.65;4.35;;;;;;;;;;5012664;28;20194;-83
2020/12/18 02:10:19;;;;;;;4.38;3.30;;;;;;;;;;5017710;28;20257;-85
2020/12/18 02:12:45;;;;;;;9.40;4.43;;;;;;;;;;5022159;28;20229;-83
2020/12/18 02:15:12;;;;;;;6.83;4.17;;;;;;;;;;5035097;28;20194;-83
2020/12/18 02:17:38;;;;;;;7.00;4.30;;;;;;;;;;5017543;28;20442;-83
2020/12/18 02:20:04;;;;;;;6.72;3.83;;;;;;;;;;5031526;28;20554;-82
2020/12/18 02:22:30;;;;;;;8.05;4.50;;;;;;;;;;5037180;28;20273;-82
2020/12/18 02:25:06;;;;;;;8.20;3.93;;;;;;;;;;5021394;28;20217;-84
2020/12/18 02:27:32;;;;;;;9.20;3.50;;;;;;;;;;5018930;28;20413;-83
2020/12/18 02:29:58;;;;;;;6.45;4.00;;;;;;;;;;5021075;28;20217;-82
2020/12/18 02:32:24;;;;;;;9.23;4.00;;;;;;;;;;5021608;28;20621;-82
2020/12/18 02:34:51;;;;;;;8.00;3.92;;;;;;;;;;5037008;28;20179;-82
2020/12/18 02:37:17;;;;;;;7.97;3.72;;;;;;;;;;5023056;28;20460;-83
2020/12/18 02:39:43;;;;;;;8.80;3.22;;;;;;;;;;5034090;28;20421;-83
2020/12/18 02:42:09;;;;;;;3.10;2.72;;;;;;;;;;5021065;28;20182;-83
2020/12/18 02:44:35;;;;;;;3.90;3.10;;;;;;;;;;5020775;28;20187;-84
2020/12/18 02:47:01;;;;;;;13.33;3.27;;;;;;;;;;5039206;28;20266;-83
2020/12/18 02:49:26;;;;;;;7.30;3.15;;;;;;;;;;5020024;28;20465;-83
2020/12/18 02:51:52;;;;;;;8.83;3.17;;;;;;;;;;5026089;28;20430;-84
2020/12/18 02:54:18;;;;;;;4.63;3.07;;;;;;;;;;5036182;28;20468;-82
2020/12/18 02:56:44;;;;;;;6.22;3.75;;;;;;;;;;5025728;28;20441;-83
2020/12/18 02:59:10;;;;;;;7.93;3.40;;;;;;;;;;5025531;28;20245;-82
2020/12/18 03:01:37;;;;;;;4.63;2.80;;;;;;;;;;5024933;28;20205;-83
2020/12/18 03:04:03;;;;;;;4.60;2.40;;;;;;;;;;5026320;28;20174;-82
2020/12/18 03:06:29;;;;;;;3.53;2.90;;;;;;;;;;5020096;28;20171;-83
2020/12/18 03:08:55;;;;;;;6.63;2.90;;;;;;;;;;5019959;28;20364;-84
2020/12/18 03:11:21;;;;;;;5.60;2.25;;;;;;;;;;5024678;28;20512;-83
2020/12/18 03:13:47;;;;;;;9.35;2.70;;;;;;;;;;5035899;28;20622;-82
2020/12/18 03:16:13;;;;;;;6.75;2.75;;;;;;;;;;5046038;28;20188;-83
2020/12/18 03:18:39;;;;;;;5.05;2.50;;;;;;;;;;5039975;28;20181;-82
2020/12/18 03:21:05;;;;;;;3.65;2.70;;;;;;;;;;5017788;28;20201;-83
2020/12/18 03:23:32;;;;;;;3.05;1.88;;;;;;;;;;5046146;28;20186;-83
2020/12/18 03:25:58;;;;;;;2.40;2.05;;;;;;;;;;5041088;28;20194;-83
2020/12/18 03:28:24;;;;;;;6.55;2.92;;;;;;;;;;5043777;28;20204;-83
2020/12/18 03:30:50;;;;;;;6.22;2.47;;;;;;;;;;5029122;28;20259;-81
2020/12/18 03:33:16;;;;;;;8.90;3.50;;;;;;;;;;5044405;28;20241;-82
2020/12/18 03:35:43;;;;;;;5.72;2.50;;;;;;;;;;5022475;28;20183;-83
2020/12/18 03:38:09;;;;;;;3.40;2.13;;;;;;;;;;5045600;28;20182;-81
2020/12/18 03:40:35;;;;;;;8.40;2.60;;;;;;;;;;5044334;28;20208;-81
2020/12/18 03:43:01;;;;;;;11.30;2.77;;;;;;;;;;5037799;28;20437;-82
2020/12/18 03:45:27;;;;;;;6.85;2.75;;;;;;;;;;5022138;28;20455;-82
2020/12/18 03:47:53;;;;;;;4.27;2.50;;;;;;;;;;5021793;28;20213;-82
2020/12/18 03:50:19;;;;;;;6.38;2.20;;;;;;;;;;5025661;28;20470;-82
2020/12/18 03:52:45;;;;;;;6.30;2.38;;;;;;;;;;5042733;28;20188;-82
2020/12/18 03:55:11;;;;;;;3.20;2.03;;;;;;;;;;5027042;28;20173;-85
2020/12/18 03:57:37;;;;;;;9.18;2.75;;;;;;;;;;5037487;28;20899;-82
2020/12/18 04:00:05;;;;;;;3.78;2.15;;;;;;;;;;5027503;28;20189;-81
2020/12/18 04:02:31;;;;;;;3.22;2.22;;;;;;;;;;5041548;28;20186;-81
2020/12/18 04:04:57;;;;;;;9.45;2.67;;;;;;;;;;5024898;28;20272;-82
2020/12/18 04:07:23;;;;;;;9.47;2.63;;;;;;;;;;5027584;28;20189;-82
2020/12/18 04:09:49;;;;;;;5.80;2.60;;;;;;;;;;5040762;28;20452;-82
2020/12/18 04:12:15;;;;;;;3.85;2.00;;;;;;;;;;5021355;28;20490;-81
2020/12/18 04:14:41;;;;;;;5.90;1.87;;;;;;;;;;5026589;28;20235;-81
2020/12/18 04:17:07;;;;;;;8.30;2.23;;;;;;;;;;5040277;28;20432;-81
2020/12/18 04:19:33;;;;;;;2.47;1.83;;;;;;;;;;5044961;28;20440;-82
2020/12/18 04:21:59;;;;;;;7.97;2.10;;;;;;;;;;5041913;28;20180;-82
2020/12/18 04:24:26;;;;;;;6.13;1.65;;;;;;;;;;5044694;28;20249;-81
2020/12/18 04:26:52;;;;;;;6.45;2.30;;;;;;;;;;5042430;28;20182;-81
2020/12/18 04:29:18;;;;;;;4.63;2.13;;;;;;;;;;5043916;28;20205;-82
2020/12/18 04:31:45;;;;;;;6.65;2.13;;;;;;;;;;5045148;28;20177;-81
2020/12/18 04:34:11;;;;;;;3.63;2.05;;;;;;;;;;5025066;28;20886;-81
2020/12/18 04:36:37;;;;;;;2.15;1.80;;;;;;;;;;5025551;28;20158;-81
2020/12/18 04:39:04;;;;;;;3.60;1.90;;;;;;;;;;5026625;28;20216;-82
2020/12/18 04:41:30;;;;;;;7.18;2.75;;;;;;;;;;5023427;28;20171;-81
2020/12/18 04:43:56;;;;;;;7.55;2.50;;;;;;;;;;5023851;28;20184;-82
2020/12/18 04:46:23;;;;;;;6.55;2.35;;;;;;;;;;5026251;28;20181;-82
2020/12/18 04:48:50;;;;;;;2.65;1.98;;;;;;;;;;5027490;28;20170;-83
2020/12/18 04:51:20;;;;;;;3.97;2.05;;;;;;;;;;5039401;28;20663;-81
2020/12/18 04:53:50;;;;;;;6.18;2.83;;;;;;;;;;5044699;28;20182;-82
2020/12/18 04:56:20;;;;;;;5.70;2.35;;;;;;;;;;5029855;28;20246;-81
2020/12/18 04:58:48;;;;;;;3.03;2.55;;;;;;;;;;5040906;28;20235;-82
2020/12/18 05:01:17;;;;;;;3.83;2.42;;;;;;;;;;5042222;28;20174;-81
2020/12/18 05:03:45;;;;;;;5.05;2.30;;;;;;;;;;5040075;28;20173;-82
2020/12/18 05:06:11;;;;;;;3.63;2.28;;;;;;;;;;5044165;28;20182;-82
2020/12/18 05:08:37;;;;;;;2.80;1.60;;;;;;;;;;5039110;28;20721;-81
2020/12/18 05:11:16;;;;;;;5.38;2.47;;;;;;;;;;5022729;28;20209;-81
2020/12/18 05:13:44;;;;;;;4.95;2.33;;;;;;;;;;5021160;28;20221;-81
2020/12/18 05:16:10;;;;;;;2.72;1.83;;;;;;;;;;5025787;28;20178;-81
2020/12/18 05:18:36;;;;;;;3.97;2.70;;;;;;;;;;5037469;28;20178;-81
2020/12/18 05:21:02;;;;;;;2.50;2.10;;;;;;;;;;5022219;28;20190;-82
2020/12/18 05:23:28;;;;;;;3.42;2.25;;;;;;;;;;5043599;28;20189;-81
2020/12/18 05:25:54;;;;;;;5.63;2.43;;;;;;;;;;5043578;28;20182;-81
2020/12/18 05:28:21;;;;;;;3.53;2.10;;;;;;;;;;5040497;28;20462;-81
2020/12/18 05:30:48;;;;;;;4.03;2.13;;;;;;;;;;5040211;28;20198;-82
2020/12/18 05:33:14;;;;;;;2.95;2.35;;;;;;;;;;5020243;28;20188;-81
2020/12/18 05:35:40;;;;;;;5.97;2.97;;;;;;;;;;5020712;28;20178;-81
2020/12/18 05:38:07;;;;;;;3.45;2.10;;;;;;;;;;5042625;28;20212;-82
2020/12/18 05:40:33;;;;;;;5.43;2.50;;;;;;;;;;5019536;28;20192;-82
2020/12/18 05:43:05;;;;;;;2.53;2.33;;;;;;;;;;5042596;28;20186;-81
2020/12/18 05:45:31;;;;;;;4.28;3.30;;;;;;;;;;5022560;28;20409;-81
2020/12/18 05:48:01;;;;;;;6.87;2.60;;;;;;;;;;5016564;28;20201;-81
2020/12/18 05:50:28;;;;;;;8.20;2.40;;;;;;;;;;5043458;28;20526;-80
2020/12/18 05:52:58;;;;;;;4.32;2.08;;;;;;;;;;5042964;28;20177;-82
2020/12/18 05:55:25;;;;;;;6.30;2.92;;;;;;;;;;5046393;28;20288;-81
2020/12/18 05:57:52;;;;;;;4.28;2.75;;;;;;;;;;5025852;28;20189;-81
2020/12/18 06:00:18;;;;;;;6.07;2.90;;;;;;;;;;5021159;28;20192;-82
2020/12/18 06:02:46;;;;;;;6.28;3.55;;;;;;;;;;5038143;28;20194;-81
2020/12/18 06:05:12;;;;;;;4.00;1.98;;;;;;;;;;5011979;28;20181;-81
2020/12/18 06:07:40;;;;;;;3.28;2.90;;;;;;;;;;5040958;28;20544;-80
2020/12/18 06:10:06;;;;;;;3.83;2.33;;;;;;;;;;5042029;28;20280;-81
2020/12/18 06:12:32;;;;;;;6.35;2.67;;;;;;;;;;5018492;28;20240;-81
2020/12/18 06:14:58;;;;;;;4.63;2.53;;;;;;;;;;5019428;28;20277;-81
2020/12/18 06:17:27;;;;;;;2.30;2.10;;;;;;;;;;5022195;28;20181;-81
2020/12/18 06:19:56;;;;;;;5.25;2.13;;;;;;;;;;5022256;28;20442;-81
2020/12/18 06:22:22;;;;;;;5.40;2.95;;;;;;;;;;5041205;28;20186;-82
2020/12/18 06:24:48;;;;;;;3.20;2.25;;;;;;;;;;5025366;28;20187;-81
2020/12/18 06:27:20;;;;;;;5.00;2.35;;;;;;;;;;5040562;28;20224;-82
2020/12/18 06:29:47;;;;;;;5.72;2.60;;;;;;;;;;5037401;28;20201;-81
2020/12/18 06:32:29;;;;;;;4.20;2.40;;;;;;;;;;5031379;28;20257;-81
2020/12/18 06:34:56;;;;;;;10.20;3.22;;;;;;;;;;5021291;28;20190;-81
2020/12/18 06:37:32;;;;;;;6.85;2.15;;;;;;;;;;5023635;28;20180;-81
2020/12/18 06:39:58;;;;;;;6.07;2.00;;;;;;;;;;5042951;28;20196;-81
2020/12/18 06:42:25;;;;;;;4.18;2.20;;;;;;;;;;5040751;28;20182;-82
2020/12/18 06:44:55;;;;;;;4.25;2.45;;;;;;;;;;5024943;28;20276;-81
2020/12/18 06:47:24;;;;;;;4.28;2.40;;;;;;;;;;5022525;28;20186;-81
2020/12/18 06:49:53;;;;;;;6.65;3.20;;;;;;;;;;5021493;28;20202;-81
2020/12/18 06:52:38;;;;;;;2.45;1.95;;;;;;;;;;5024333;28;20205;-81
2020/12/18 06:55:04;;;;;;;2.88;2.60;;;;;;;;;;5038049;28;20162;-80
2020/12/18 06:57:30;;;;;;;2.45;2.05;;;;;;;;;;5024008;28;20204;-80
2020/12/18 07:00:15;;;;;;;3.17;2.70;;;;;;;;;;5041063;28;20280;-80
2020/12/18 07:02:41;;;;;;;4.30;2.50;;;;;;;;;;5031957;28;20190;-80
2020/12/18 07:05:27;;;;;;;3.90;1.90;;;;;;;;;;5040937;28;20178;-80
2020/12/18 07:07:54;;;;;;;7.60;3.30;;;;;;;;;;5039834;28;20453;-80
2020/12/18 07:10:20;;;;;;;6.13;2.60;;;;;;;;;;5035845;28;20694;-80
2020/12/18 07:12:50;;;;;;;7.15;2.70;;;;;;;;;;5042344;28;20674;-80
2020/12/18 07:15:16;;;;;;;7.57;3.63;;;;;;;;;;5019780;28;20231;-81
2020/12/18 07:17:47;;;;;;;9.73;2.50;;;;;;;;;;5019473;28;20174;-80
2020/12/18 07:20:13;;;;;;;3.38;2.80;;;;;;;;;;5010617;28;20178;-80
2020/12/18 07:22:39;;;;;;;4.93;3.05;;;;;;;;;;5037708;28;20190;-80
2020/12/18 07:25:10;;;;;;;4.72;2.58;;;;;;;;;;5024977;28;20166;-79
2020/12/18 07:27:38;;;;;;;5.30;2.28;;;;;;;;;;5030739;28;20255;-80
2020/12/18 07:30:08;;;;;;;4.63;3.00;;;;;;;;;;5035642;28;20710;-81
2020/12/18 07:32:35;;;;;;;3.08;2.80;;;;;;;;;;5041400;28;20447;-80
2020/12/18 07:35:08;;;;;;;5.30;2.95;;;;;;;;;;5042327;28;20178;-80
2020/12/18 07:37:35;;;;;;;3.28;2.53;;;;;;;;;;5023736;28;20186;-79
2020/12/18 07:40:01;;;;;;;2.75;2.55;;;;;;;;;;5029821;28;20284;-80
2020/12/18 07:42:27;;;;;;;3.00;2.80;;;;;;;;;;5027932;28;20193;-79
2020/12/18 07:45:06;;;;;;;6.13;3.35;;;;;;;;;;5021861;28;20198;-79
2020/12/18 07:47:37;;;;;;;8.45;2.60;;;;;;;;;;5024309;28;20210;-79
2020/12/18 07:50:04;;;;;;;6.00;2.70;;;;;;;;;;5043169;28;20265;-79
2020/12/18 07:52:30;;;;;;;4.82;3.00;;;;;;;;;;5041470;28;20176;-79
2020/12/18 07:54:56;;;;;;;4.15;2.55;;;;;;;;;;5045411;28;20235;-79
2020/12/18 07:57:22;;;;;;;5.82;2.67;;;;;;;;;;5027117;28;20182;-80
2020/12/18 07:59:48;;;;;;;4.15;3.75;;;;;;;;;;5027062;28;20186;-80
2020/12/18 08:02:24;;;;;;;10.23;5.18;;;;;;;;;;5023063;28;20237;-79
2020/12/18 08:04:57;;;;;;;7.05;6.00;;;;;;;;;;5039970;28;20190;-80
2020/12/18 08:07:23;;;;;;;4.65;3.30;;;;;;;;;;5040525;28;20193;-79
2020/12/18 08:10:02;;;;;;;5.32;3.22;;;;;;;;;;5039438;28;20197;-79
2020/12/18 08:12:29;;;;;;;3.47;3.17;;;;;;;;;;5026250;28;20730;-80
2020/12/18 08:15:11;;;;;;;4.10;3.53;;;;;;;;;;5021749;28;20195;-79
2020/12/18 08:17:38;;;;;;;5.45;3.40;;;;;;;;;;5023778;28;20209;-79
2020/12/18 08:20:04;;;;;;;4.07;3.35;;;;;;;;;;5044445;28;20188;-80
2020/12/18 08:22:33;;;;;;;4.97;3.72;;;;;;;;;;5038741;28;20190;-79
2020/12/18 08:25:00;;;;;;;4.70;3.30;;;;;;;;;;5035681;28;20170;-80
2020/12/18 08:27:28;;;;;;;7.97;5.05;;;;;;;;;;5037004;28;20236;-80
2020/12/18 08:29:54;;;;;;;5.63;4.38;;;;;;;;;;5017978;28;20277;-80
2020/12/18 08:32:26;;;;;;;5.35;4.10;;;;;;;;;;5027015;28;20205;-80
2020/12/18 08:34:58;;;;;;;5.53;4.55;;;;;;;;;;5043050;28;20178;-79
2020/12/18 08:37:24;;;;;;;6.43;4.25;;;;;;;;;;5041865;28;20253;-80
2020/12/18 08:39:50;;;;;;;6.57;4.53;;;;;;;;;;5039822;28;20256;-81
2020/12/18 08:42:16;;;;;;;6.40;4.75;;;;;;;;;;5020914;28;20452;-80
2020/12/18 08:44:43;;;;;;;6.97;4.00;;;;;;;;;;5022651;28;20189;-80
2020/12/18 08:47:25;;;;;;;4.90;4.03;;;;;;;;;;5026108;28;20451;-81
2020/12/18 08:49:53;;;;;;;5.90;3.55;;;;;;;;;;5023174;28;20206;-80
2020/12/18 08:52:28;;;;;;;3.45;3.08;;;;;;;;;;5042741;28;20209;-80
2020/12/18 08:55:05;;;;;;;5.38;2.72;;;;;;;;;;5026909;28;20615;-80
2020/12/18 08:57:32;;;;;;;5.15;3.40;;;;;;;;;;5018439;28;20227;-81
2020/12/18 09:00:04;;;;;;;6.93;3.42;;;;;;;;;;5042297;28;20205;-80
2020/12/18 09:02:30;;;;;;;4.55;3.40;;;;;;;;;;5023632;28;20195;-80
2020/12/18 09:05:13;;;;;;;5.15;2.83;;;;;;;;;;5045880;28;20584;-80
2020/12/18 09:07:40;;;;;;;6.07;3.10;;;;;;;;;;5038505;28;20253;-79
2020/12/18 09:10:06;;;;;;;5.85;3.80;;;;;;;;;;5037899;28;20240;-78
2020/12/18 09:12:38;;;;;;;5.18;3.50;;;;;;;;;;5025454;28;20206;-81
2020/12/18 09:15:20;;;;;;;4.10;3.00;;;;;;;;;;5022645;28;20185;-80
2020/12/18 09:17:46;;;;;;;4.28;2.85;;;;;;;;;;5037849;28;20189;-80
2020/12/18 09:20:32;;;;;;;9.43;3.33;;;;;;;;;;5036896;28;20188;-79
2020/12/18 09:23:08;;;;;;;5.20;3.25;;;;;;;;;;5040713;28;20193;-80
2020/12/18 09:25:35;;;;;;;4.55;3.33;;;;;;;;;;5033438;28;20181;-80
2020/12/18 09:28:01;;;;;;;4.15;3.47;;;;;;;;;;5021167;28;20189;-80
2020/12/18 09:30:29;;;;;;;4.72;2.90;;;;;;;;;;5021413;28;20216;-81
2020/12/18 09:33:27;;;;;;;3.35;2.90;;;;;;;;;;5033774;28;20190;-81
2020/12/18 09:35:53;;;;;;;3.25;2.67;;;;;;;;;;4980098;28;20203;-80
2020/12/18 09:38:24;;;;;;;3.25;2.95;;;;;;;;;;4981549;28;20223;-79
2020/12/18 09:40:50;;;;;;;3.95;3.25;;;;;;;;;;4981224;28;20282;-80
2020/12/18 09:43:16;;;;;;;3.67;2.88;;;;;;;;;;4965400;28;20198;-79
2020/12/18 09:45:42;;;;;;;5.03;3.55;;;;;;;;;;4979842;28;20199;-79
2020/12/18 09:48:08;;;;;;;3.75;2.88;;;;;;;;;;4964271;28;20195;-79
2020/12/18 09:50:34;;;;;;;6.22;3.33;;;;;;;;;;4981152;28;20222;-79
2020/12/18 09:53:00;;;;;;;6.35;3.08;;;;;;;;;;4981504;28;20192;-79
2020/12/18 09:55:26;;;;;;;3.40;3.10;;;;;;;;;;4964019;28;20203;-80
2020/12/18 09:57:52;;;;;;;4.07;3.40;;;;;;;;;;4980152;28;20467;-80
2020/12/18 10:00:18;;;;;;;3.13;2.93;;;;;;;;;;4980268;28;20447;-81
2020/12/18 10:02:44;;;;;;;4.90;2.63;;;;;;;;;;4981379;28;20470;-79
2020/12/18 10:05:10;;;;;;;3.88;2.70;;;;;;;;;;4981888;28;20275;-80
2020/12/18 10:07:36;;;;;;;2.75;2.53;;;;;;;;;;4963432;28;20291;-79
2020/12/18 10:10:02;;;;;;;4.45;2.80;;;;;;;;;;4965843;28;20302;-78
2020/12/18 10:12:28;;;;;;;2.88;2.50;;;;;;;;;;5014648;28;20224;-79
2020/12/18 10:14:54;;;;;;;6.40;2.60;;;;;;;;;;5019756;28;20667;-80
2020/12/18 10:17:20;;;;;;;2.90;2.10;;;;;;;;;;5038822;28;20236;-79
2020/12/18 10:19:46;;;;;;;4.82;2.78;;;;;;;;;;5038733;28;20208;-79
2020/12/18 10:22:12;;;;;;;4.80;2.65;;;;;;;;;;5040403;28;20178;-79
2020/12/18 10:24:38;;;;;;;6.45;2.70;;;;;;;;;;5037587;28;20220;-80
2020/12/18 10:27:04;;;;;;;4.07;2.55;;;;;;;;;;5038789;28;20186;-81
2020/12/18 10:29:29;;;;;;;3.42;2.47;;;;;;;;;;5015892;28;20206;-80
2020/12/18 10:31:56;;;;;;;3.95;2.75;;;;;;;;;;5028385;28;20646;-80
2020/12/18 10:34:23;;;;;;;2.95;2.72;;;;;;;;;;5036574;28;20220;-80
2020/12/18 10:36:50;;;;;;;2.45;2.25;;;;;;;;;;5022175;28;20170;-80
2020/12/18 10:39:16;;;;;;;4.93;2.35;;;;;;;;;;5035253;28;20260;-79
2020/12/18 10:41:42;;;;;;;6.45;3.10;;;;;;;;;;5023126;28;20197;-79
2020/12/18 10:44:08;;;;;;;2.65;2.05;;;;;;;;;;5041291;28;20269;-80
2020/12/18 10:46:35;;;;;;;3.67;2.15;;;;;;;;;;5023719;28;20533;-80
2020/12/18 10:49:01;;;;;;;3.85;2.30;;;;;;;;;;5038629;28;20177;-80
2020/12/18 10:51:27;;;;;;;6.07;3.00;;;;;;;;;;5037123;28;20258;-80
2020/12/18 10:53:53;;;;;;;3.67;2.72;;;;;;;;;;5042186;28;20474;-80
2020/12/18 10:56:19;;;;;;;3.92;2.50;;;;;;;;;;5040820;28;20233;-80
2020/12/18 10:58:45;;;;;;;3.00;2.70;;;;;;;;;;5041944;28;20208;-79
2020/12/18 11:01:11;;;;;;;4.00;2.45;;;;;;;;;;5024746;28;20197;-80
2020/12/18 11:03:38;;;;;;;6.00;2.83;;;;;;;;;;5024112;28;20611;-80
2020/12/18 11:06:04;;;;;;;4.80;2.00;;;;;;;;;;5037839;28;20186;-80
2020/12/18 11:08:30;;;;;;;5.47;2.63;;;;;;;;;;5043667;28;20186;-81
2020/12/18 11:10:56;;;;;;;2.93;2.20;;;;;;;;;;5041626;28;20220;-81
2020/12/18 11:13:22;;;;;;;3.75;2.28;;;;;;;;;;5027324;28;20464;-81
2020/12/18 11:15:48;;;;;;;3.40;3.13;;;;;;;;;;5047546;28;20169;-81
2020/12/18 11:18:14;;;;;;;4.47;2.42;;;;;;;;;;5027105;28;20196;-82
2020/12/18 11:20:40;;;;;;;4.28;2.92;;;;;;;;;;5045495;28;20189;-80
2020/12/18 11:23:06;;;;;;;3.53;2.33;;;;;;;;;;5045972;28;20206;-81
2020/12/18 11:25:32;;;;;;;2.50;2.30;;;;;;;;;;5027967;28;20456;-81
2020/12/18 11:27:58;;;;;;;3.00;2.33;;;;;;;;;;5044908;28;20185;-80
2020/12/18 11:30:24;;;;;;;3.13;2.37;;;;;;;;;;5041309;28;20563;-81
2020/12/18 11:32:50;;;;;;;5.38;3.00;;;;;;;;;;5028630;28;20436;-81
2020/12/18 11:35:16;;;;;;;3.40;2.60;;;;;;;;;;5021594;28;20185;-81
2020/12/18 11:37:43;;;;;;;3.78;2.35;;;;;;;;;;5041096;28;20440;-81
2020/12/18 11:40:09;;;;;;;3.25;2.35;;;;;;;;;;5039707;28;20417;-81
2020/12/18 11:42:35;;;;;;;3.38;1.90;;;;;;;;;;5044369;28;20435;-83
2020/12/18 11:45:02;;;;;;;3.45;2.80;;;;;;;;;;5042653;28;20196;-81
2020/12/18 11:47:28;;;;;;;3.25;2.50;;;;;;;;;;5025163;28;20249;-81
2020/12/18 11:49:54;;;;;;;4.18;2.30;;;;;;;;;;5024446;28;20206;-81
2020/12/18 11:52:20;;;;;;;3.90;2.63;;;;;;;;;;5027836;28;20208;-82
2020/12/18 11:54:46;;;;;;;3.23;2.43;;;;;;;;;;5025187;28;20174;-82
2020/12/18 11:57:12;;;;;;;3.10;2.50;;;;;;;;;;5035888;28;20440;-80
2020/12/18 11:59:38;;;;;;;5.15;2.60;;;;;;;;;;5025623;28;20941;-81
2020/12/18 12:02:04;;;;;;;3.20;2.90;;;;;;;;;;5044408;28;20365;-81
2020/12/18 12:04:30;;;;;;;4.88;2.90;;;;;;;;;;5039085;28;20470;-81
2020/12/18 12:06:56;;;;;;;2.90;2.50;;;;;;;;;;5037452;28;20186;-81
2020/12/18 12:09:22;;;;;;;2.43;2.07;;;;;;;;;;5043642;28;20516;-81
2020/12/18 12:11:48;;;;;;;3.23;2.10;;;;;;;;;;5026323;28;20444;-82
2020/12/18 12:14:14;;;;;;;2.85;2.25;;;;;;;;;;5027253;28;20904;-80
2020/12/18 12:16:40;;;;;;;5.40;2.90;;;;;;;;;;5043888;28;20190;-81
2020/12/18 12:19:08;;;;;;;3.15;2.55;;;;;;;;;;5037454;28;20184;-83
2020/12/18 12:21:34;;;;;;;5.40;2.50;;;;;;;;;;5039452;28;20249;-81
2020/12/18 12:24:01;;;;;;;2.83;2.28;;;;;;;;;;5044978;28;20220;-81
2020/12/18 12:26:27;;;;;;;3.17;2.05;;;;;;;;;;5044442;28;20197;-81
2020/12/18 12:28:54;;;;;;;2.80;2.22;;;;;;;;;;5044156;28;20288;-81
2020/12/18 12:31:20;;;;;;;2.38;2.00;;;;;;;;;;5035456;28;20536;-82
2020/12/18 12:33:46;;;;;;;3.67;2.53;;;;;;;;;;5026663;28;20182;-81
2020/12/18 12:36:22;;;;;;;3.05;2.20;;;;;;;;;;5041815;28;20185;-81
2020/12/18 12:38:48;;;;;;;9.48;2.72;;;;;;;;;;5016880;28;20220;-82
2020/12/18 12:41:15;;;;;;;2.58;2.00;;;;;;;;;;5042722;28;20194;-82
2020/12/18 12:43:41;;;;;;;2.80;2.05;;;;;;;;;;5039991;28;20209;-81
2020/12/18 12:46:07;;;;;;;1.90;1.80;;;;;;;;;;5034169;28;20194;-81
2020/12/18 12:48:33;;;;;;;2.35;2.15;;;;;;;;;;5040093;28;20201;-81
2020/12/18 12:50:59;;;;;;;2.88;1.83;;;;;;;;;;5037996;28;20206;-82
2020/12/18 12:53:25;;;;;;;2.93;2.23;;;;;;;;;;5041746;28;20178;-82
2020/12/18 12:55:51;;;;;;;2.38;1.90;;;;;;;;;;5024552;28;20425;-81
2020/12/18 12:58:17;;;;;;;2.03;1.80;;;;;;;;;;5042361;28;20181;-81
2020/12/18 13:00:45;;;;;;;2.75;1.77;;;;;;;;;;5042816;28;20186;-81
2020/12/18 13:03:11;;;;;;;2.92;2.28;;;;;;;;;;5041658;28;20734;-82
2020/12/18 13:05:37;;;;;;;3.95;1.77;;;;;;;;;;5021022;28;20185;-82
2020/12/18 13:08:04;;;;;;;3.17;2.13;;;;;;;;;;5023130;28;20190;-82
2020/12/18 13:10:30;;;;;;;2.13;1.92;;;;;;;;;;5025867;28;20212;-83
2020/12/18 13:12:56;;;;;;;5.27;2.07;;;;;;;;;;5023420;28;20210;-85
2020/12/18 13:15:22;;;;;;;3.27;1.40;;;;;;;;;;5022499;28;20831;-83
2020/12/18 13:17:48;;;;;;;2.00;1.85;;;;;;;;;;5026203;28;20504;-83
2020/12/18 13:20:14;;;;;;;3.97;1.70;;;;;;;;;;5043088;28;20192;-84
2020/12/18 13:22:40;;;;;;;1.92;1.75;;;;;;;;;;5025579;28;20429;-84
2020/12/18 13:25:07;;;;;;;1.57;1.37;;;;;;;;;;5026778;28;20655;-83
2020/12/18 13:27:33;;;;;;;2.05;1.85;;;;;;;;;;5042853;28;20424;-84
2020/12/18 13:29:59;;;;;;;2.70;1.80;;;;;;;;;;5020984;28;20210;-84
2020/12/18 13:32:25;;;;;;;2.70;1.93;;;;;;;;;;5042709;28;20500;-83
2020/12/18 13:34:51;;;;;;;3.15;1.88;;;;;;;;;;5043987;28;20441;-84
2020/12/18 13:37:17;;;;;;;1.60;1.50;;;;;;;;;;5025701;28;20173;-84
2020/12/18 13:39:43;;;;;;;1.83;1.50;;;;;;;;;;5036973;28;20269;-84
2020/12/18 13:42:11;;;;;;;2.78;1.40;;;;;;;;;;5025250;28;20440;-84
2020/12/18 13:44:37;;;;;;;2.65;1.60;;;;;;;;;;5022462;28;20194;-83
2020/12/18 13:47:03;;;;;;;1.98;1.70;;;;;;;;;;5023530;28;20186;-85
2020/12/18 13:49:29;;;;;;;2.03;1.20;;;;;;;;;;5036176;28;20185;-84
2020/12/18 13:51:55;;;;;;;1.93;1.50;;;;;;;;;;5026670;28;20174;-85
2020/12/18 13:54:21;;;;;;;3.58;1.63;;;;;;;;;;5038127;28;20429;-85
2020/12/18 13:56:47;;;;;;;1.80;1.60;;;;;;;;;;5020429;28;20217;-85
2020/12/18 13:59:14;;;;;;;2.20;1.40;;;;;;;;;;5019652;28;20445;-84
2020/12/18 14:01:40;;;;;;;2.33;2.00;;;;;;;;;;5043423;28;20197;-84
2020/12/18 14:04:09;;;;;;;4.32;1.70;;;;;;;;;;5038853;28;20181;-83
2020/12/18 14:06:35;;;;;;;2.00;1.40;;;;;;;;;;5023503;28;20174;-85
2020/12/18 14:09:02;;;;;;;1.50;1.40;;;;;;;;;;5019741;28;20258;-84
2020/12/18 14:11:28;;;;;;;1.95;1.40;;;;;;;;;;5022499;28;20275;-83
2020/12/18 14:13:53;;;;;;;1.45;1.35;;;;;;;;;;5022599;28;20325;-84
2020/12/18 14:16:19;;;;;;;1.53;1.43;;;;;;;;;;5025838;28;20376;-85
2020/12/18 14:18:46;;;;;;;1.23;1.10;;;;;;;;;;5041668;28;20436;-83
2020/12/18 14:21:12;;;;;;;2.17;1.50;;;;;;;;;;5024607;28;20445;-86
2020/12/18 14:23:38;;;;;;;6.05;1.90;;;;;;;;;;5043016;28;20239;-84
2020/12/18 14:26:04;;;;;;;2.00;1.83;;;;;;;;;;5042980;28;20182;-85
2020/12/18 14:28:30;;;;;;;1.65;1.30;;;;;;;;;;5041446;28;20194;-84
2020/12/18 14:30:56;;;;;;;2.70;1.30;;;;;;;;;;5043955;28;20227;-84
2020/12/18 14:33:22;;;;;;;3.33;1.73;;;;;;;;;;5036955;28;20217;-84
2020/12/18 14:35:48;;;;;;;1.38;1.27;;;;;;;;;;5019975;28;20541;-82
2020/12/18 14:38:14;;;;;;;1.63;1.20;;;;;;;;;;5041833;28;20190;-85
2020/12/18 14:40:40;;;;;;;1.70;1.40;;;;;;;;;;5025086;28;20356;-84
2020/12/18 14:43:06;;;;;;;4.05;1.38;;;;;;;;;;5024580;28;20185;-83